Time;durP1;ratioP1;P1;durP2;ratioP2;P2;SDS_P1;SDS_P2;PMS_P1;PMS_P2;Temp;Humidity;BMP_temperature;BMP_pressure;BME280_temperature;BME280_humidity;BME280_pressure;Samples;Min_cycle;Max_cycle;Signal;HPM_P1;HPM_P2
2021/01/12 00:00:51;;;;;;;31.90;23.53;;;5.10;99.90;;;;;;5011251;28;20479;-49
2021/01/12 00:03:19;;;;;;;30.83;24.20;;;5.10;99.90;;;;;;5009922;28;20486;-49
2021/01/12 00:05:46;;;;;;;30.37;23.07;;;5.10;99.90;;;;;;5009285;28;21061;-50
2021/01/12 00:08:14;;;;;;;31.50;21.87;;;5.10;99.90;;;;;;5009059;28;20494;-49
2021/01/12 00:10:42;;;;;;;31.53;24.13;;;5.20;99.90;;;;;;5007888;28;21011;-49
2021/01/12 00:13:10;;;;;;;29.57;19.53;;;5.20;99.90;;;;;;5012286;28;20486;-49
2021/01/12 00:15:38;;;;;;;32.40;23.47;;;5.20;99.90;;;;;;5013988;28;20550;-50
2021/01/12 00:18:05;;;;;;;30.40;23.77;;;5.20;99.90;;;;;;5023227;28;20513;-49
2021/01/12 00:20:33;;;;;;;32.37;25.00;;;5.20;99.90;;;;;;5022567;28;20485;-49
2021/01/12 00:23:00;;;;;;;32.63;24.57;;;5.30;99.90;;;;;;5011294;28;20486;-49
2021/01/12 00:25:28;;;;;;;30.47;23.43;;;5.30;99.90;;;;;;5008768;28;20474;-50
2021/01/12 00:27:56;;;;;;;32.70;22.83;;;5.30;99.90;;;;;;5009939;28;20494;-49
2021/01/12 00:30:24;;;;;;;33.33;25.57;;;5.30;99.90;;;;;;5008195;28;21064;-50
2021/01/12 00:32:52;;;;;;;30.90;24.30;;;5.30;99.90;;;;;;5007487;28;20486;-49
2021/01/12 00:35:20;;;;;;;34.37;23.93;;;5.30;99.90;;;;;;5008598;28;20994;-49
2021/01/12 00:37:47;;;;;;;27.97;21.07;;;5.40;99.90;;;;;;5008247;28;20542;-49
2021/01/12 00:40:15;;;;;;;30.20;22.37;;;5.30;99.90;;;;;;5008506;28;20470;-49
2021/01/12 00:42:43;;;;;;;27.47;20.43;;;5.40;99.90;;;;;;5007530;28;20498;-49
2021/01/12 00:45:12;;;;;;;26.30;20.83;;;5.30;99.90;;;;;;5008474;28;20491;-51
2021/01/12 00:47:44;;;;;;;24.87;19.53;;;5.30;99.90;;;;;;5007939;28;20824;-49
2021/01/12 00:50:12;;;;;;;24.13;17.80;;;5.40;99.90;;;;;;5008261;28;20947;-49
2021/01/12 00:52:39;;;;;;;23.20;17.87;;;5.40;99.90;;;;;;5006602;28;20477;-49
2021/01/12 00:55:08;;;;;;;21.97;17.40;;;5.40;99.90;;;;;;5008448;28;20237;-50
2021/01/12 00:57:38;;;;;;;21.97;15.93;;;5.50;99.90;;;;;;5008153;28;20487;-49
2021/01/12 01:00:08;;;;;;;19.27;15.93;;;5.50;99.90;;;;;;5007833;28;20468;-49
2021/01/12 01:02:36;;;;;;;21.77;16.50;;;5.50;99.90;;;;;;5007500;28;20836;-49
2021/01/12 01:05:06;;;;;;;22.90;16.10;;;5.60;99.90;;;;;;5001491;28;20233;-49
2021/01/12 01:07:34;;;;;;;19.17;15.47;;;5.60;99.90;;;;;;5018162;28;20477;-49
2021/01/12 01:10:02;;;;;;;20.63;16.70;;;5.70;99.90;;;;;;5014496;28;20481;-49
2021/01/12 01:12:29;;;;;;;20.20;16.50;;;5.60;99.90;;;;;;5012159;28;21086;-49
2021/01/12 01:14:56;;;;;;;22.00;16.70;;;5.60;99.90;;;;;;5013674;28;20532;-49
2021/01/12 01:17:24;;;;;;;23.40;18.47;;;5.60;99.90;;;;;;5019193;28;20290;-49
2021/01/12 01:19:51;;;;;;;22.57;17.27;;;5.60;99.90;;;;;;5027349;28;20688;-50
2021/01/12 01:22:24;;;;;;;21.40;16.70;;;5.60;99.90;;;;;;5017289;28;20542;-49
2021/01/12 01:24:51;;;;;;;19.83;16.53;;;5.70;99.90;;;;;;5006022;28;20699;-51
2021/01/12 01:27:18;;;;;;;19.43;15.67;;;5.70;99.90;;;;;;5006237;28;20275;-49
2021/01/12 01:29:46;;;;;;;18.00;14.70;;;5.70;99.90;;;;;;5007350;28;20999;-49
2021/01/12 01:32:13;;;;;;;19.50;15.20;;;5.60;99.90;;;;;;5006492;28;20639;-49
2021/01/12 01:34:42;;;;;;;19.27;16.10;;;5.60;99.90;;;;;;5007253;28;20240;-49
2021/01/12 01:37:09;;;;;;;18.70;14.83;;;5.60;99.90;;;;;;5007493;28;21021;-49
2021/01/12 01:39:37;;;;;;;17.90;14.90;;;5.60;99.90;;;;;;5010073;28;20486;-49
2021/01/12 01:42:07;;;;;;;19.40;15.23;;;5.60;99.90;;;;;;5007272;28;20572;-49
2021/01/12 01:44:34;;;;;;;17.77;14.73;;;5.60;99.90;;;;;;5007691;28;20480;-49
2021/01/12 01:47:02;;;;;;;17.83;13.93;;;5.60;99.90;;;;;;5007488;28;20520;-49
2021/01/12 01:49:30;;;;;;;17.10;13.97;;;5.70;99.90;;;;;;5007598;28;20233;-49
2021/01/12 01:51:57;;;;;;;16.73;13.40;;;5.70;99.90;;;;;;5006800;28;20468;-50
2021/01/12 01:54:26;;;;;;;16.80;13.00;;;5.70;99.90;;;;;;5007394;28;20248;-49
2021/01/12 01:56:54;;;;;;;16.87;13.63;;;5.80;99.90;;;;;;5007302;28;20908;-51
2021/01/12 01:59:21;;;;;;;16.30;13.10;;;5.80;99.90;;;;;;5007350;28;20493;-49
2021/01/12 02:01:48;;;;;;;15.83;12.63;;;5.80;99.90;;;;;;5006743;28;20245;-50
2021/01/12 02:04:26;;;;;;;17.60;12.50;;;5.70;99.90;;;;;;5010127;28;20512;-49
2021/01/12 02:06:56;;;;;;;15.40;12.60;;;5.70;99.90;;;;;;5021512;28;20236;-49
2021/01/12 02:09:30;;;;;;;17.83;14.10;;;5.80;99.90;;;;;;5018003;28;20573;-49
2021/01/12 02:12:02;;;;;;;16.93;13.47;;;5.70;99.90;;;;;;5020320;28;20254;-49
2021/01/12 02:14:37;;;;;;;16.13;13.20;;;5.80;99.90;;;;;;5021232;28;20471;-49
2021/01/12 02:17:07;;;;;;;17.17;13.47;;;5.80;99.90;;;;;;5010651;28;20501;-49
2021/01/12 02:19:37;;;;;;;16.40;12.83;;;5.80;99.90;;;;;;5006134;28;20245;-50
2021/01/12 02:22:06;;;;;;;18.10;14.47;;;5.80;99.90;;;;;;5009959;28;20483;-50
2021/01/12 02:24:36;;;;;;;16.27;12.83;;;5.80;99.90;;;;;;5011402;28;20263;-49
2021/01/12 02:27:05;;;;;;;15.47;13.37;;;5.80;99.90;;;;;;5010282;28;20565;-49
2021/01/12 02:29:33;;;;;;;15.77;12.47;;;5.80;99.90;;;;;;5010305;28;20559;-49
2021/01/12 02:32:00;;;;;;;14.87;11.53;;;5.80;99.90;;;;;;5010266;28;20472;-51
2021/01/12 02:34:30;;;;;;;15.40;12.73;;;5.80;99.90;;;;;;5010412;28;20252;-49
2021/01/12 02:36:59;;;;;;;17.30;12.47;;;5.80;99.90;;;;;;5010022;28;20303;-49
2021/01/12 02:39:30;;;;;;;15.03;12.27;;;5.90;99.90;;;;;;5010576;28;20233;-49
2021/01/12 02:41:58;;;;;;;14.83;11.57;;;5.90;99.90;;;;;;5009835;28;20237;-51
2021/01/12 02:44:26;;;;;;;15.13;11.87;;;5.90;99.90;;;;;;5009779;28;20492;-49
2021/01/12 02:46:54;;;;;;;14.73;11.67;;;5.90;99.90;;;;;;5010363;28;20484;-49
2021/01/12 02:49:23;;;;;;;16.90;12.53;;;5.90;99.90;;;;;;5013669;28;20481;-49
2021/01/12 02:51:50;;;;;;;12.83;10.43;;;5.90;99.90;;;;;;5011482;28;20559;-49
2021/01/12 02:54:17;;;;;;;13.50;12.07;;;5.90;99.90;;;;;;5009910;28;21030;-50
2021/01/12 02:56:45;;;;;;;16.07;11.93;;;5.90;99.90;;;;;;5009693;28;20550;-49
2021/01/12 02:59:13;;;;;;;13.93;11.03;;;6.00;99.90;;;;;;5010149;28;20237;-49
2021/01/12 03:01:40;;;;;;;13.40;11.27;;;6.00;99.90;;;;;;5011642;28;20549;-49
2021/01/12 03:04:08;;;;;;;14.07;11.27;;;6.00;99.90;;;;;;5012817;28;20347;-50
2021/01/12 03:06:35;;;;;;;14.03;10.73;;;6.00;99.90;;;;;;5020061;28;20459;-49
2021/01/12 03:09:04;;;;;;;14.97;11.73;;;6.00;99.90;;;;;;5014603;28;20507;-49
2021/01/12 03:11:32;;;;;;;14.60;10.80;;;6.00;99.90;;;;;;5020121;28;20478;-49
2021/01/12 03:13:59;;;;;;;13.80;11.03;;;6.00;99.90;;;;;;5020701;28;20762;-49
2021/01/12 03:16:27;;;;;;;13.00;10.40;;;6.00;99.90;;;;;;5009140;28;20488;-50
2021/01/12 03:18:55;;;;;;;13.63;10.23;;;6.10;99.90;;;;;;5009200;28;20788;-49
2021/01/12 03:21:22;;;;;;;14.23;10.90;;;6.00;99.90;;;;;;5008417;28;20479;-50
2021/01/12 03:23:49;;;;;;;12.13;10.03;;;6.10;99.90;;;;;;5008767;28;20287;-49
2021/01/12 03:26:21;;;;;;;11.47;9.50;;;6.00;99.90;;;;;;5009914;28;20603;-49
2021/01/12 03:28:48;;;;;;;11.40;9.83;;;6.00;99.90;;;;;;5009553;28;20229;-49
2021/01/12 03:31:16;;;;;;;12.30;9.57;;;6.00;99.90;;;;;;5009657;28;20484;-49
2021/01/12 03:33:44;;;;;;;13.07;10.97;;;6.00;99.90;;;;;;5009086;28;20244;-49
2021/01/12 03:36:12;;;;;;;13.43;10.33;;;6.00;99.90;;;;;;5011585;28;20487;-49
2021/01/12 03:38:39;;;;;;;12.40;10.37;;;6.00;99.90;;;;;;5009489;28;20484;-50
2021/01/12 03:41:06;;;;;;;11.67;9.30;;;6.00;99.90;;;;;;5009672;28;20839;-49
2021/01/12 03:43:34;;;;;;;12.97;10.40;;;6.00;99.90;;;;;;5008928;28;20526;-49
2021/01/12 03:46:02;;;;;;;13.00;9.73;;;6.00;99.90;;;;;;5009395;28;21006;-49
2021/01/12 03:48:29;;;;;;;12.67;10.43;;;6.10;99.90;;;;;;5009055;28;20999;-49
2021/01/12 03:50:58;;;;;;;12.20;10.10;;;6.10;99.90;;;;;;5008794;28;21090;-49
2021/01/12 03:53:25;;;;;;;11.20;9.37;;;6.10;99.90;;;;;;5008663;28;21017;-49
2021/01/12 03:55:52;;;;;;;11.87;9.30;;;6.10;99.90;;;;;;5009309;28;20484;-49
2021/01/12 03:58:19;;;;;;;11.63;9.30;;;6.10;99.90;;;;;;5009115;28;20486;-49
2021/01/12 04:00:47;;;;;;;11.93;9.50;;;6.10;99.90;;;;;;5007949;28;20240;-49
2021/01/12 04:03:14;;;;;;;11.43;9.50;;;6.10;99.90;;;;;;5011599;28;20241;-49
2021/01/12 04:05:41;;;;;;;10.27;8.33;;;6.10;99.90;;;;;;5014468;28;20511;-50
2021/01/12 04:08:11;;;;;;;12.00;9.33;;;6.10;99.90;;;;;;5013984;28;20545;-49
2021/01/12 04:10:38;;;;;;;10.07;8.97;;;6.10;99.90;;;;;;5015486;28;20233;-49
2021/01/12 04:13:06;;;;;;;10.43;8.73;;;6.10;99.90;;;;;;5008109;28;20280;-49
2021/01/12 04:15:33;;;;;;;9.80;8.30;;;6.10;99.90;;;;;;5006563;28;20543;-50
2021/01/12 04:18:01;;;;;;;11.80;9.10;;;6.10;99.90;;;;;;5007101;28;20594;-49
2021/01/12 04:20:29;;;;;;;10.43;8.30;;;6.20;99.90;;;;;;5005190;28;20327;-49
2021/01/12 04:22:56;;;;;;;9.30;8.03;;;6.20;99.90;;;;;;5007788;28;20488;-49
2021/01/12 04:25:24;;;;;;;11.60;8.93;;;6.10;99.90;;;;;;5009532;28;20232;-49
2021/01/12 04:27:51;;;;;;;9.30;7.90;;;6.00;99.90;;;;;;5012986;28;20534;-49
2021/01/12 04:30:19;;;;;;;6.20;5.47;;;6.00;99.90;;;;;;5003817;28;20271;-49
2021/01/12 04:32:47;;;;;;;6.60;4.83;;;6.00;99.90;;;;;;4991976;28;20728;-49
2021/01/12 04:35:14;;;;;;;6.43;5.47;;;6.00;99.90;;;;;;4989297;28;20591;-49
2021/01/12 04:37:43;;;;;;;6.50;5.30;;;6.00;99.90;;;;;;4989147;28;20488;-50
2021/01/12 04:40:11;;;;;;;5.73;5.13;;;6.00;99.90;;;;;;5002298;28;20240;-49
2021/01/12 04:42:39;;;;;;;7.47;5.43;;;5.90;99.90;;;;;;5007981;28;20329;-49
2021/01/12 04:45:07;;;;;;;5.47;4.33;;;5.90;99.90;;;;;;5008773;28;20233;-49
2021/01/12 04:47:35;;;;;;;7.07;4.30;;;5.90;99.90;;;;;;5008526;28;20319;-49
2021/01/12 04:50:05;;;;;;;7.23;3.97;;;5.90;99.90;;;;;;5014543;28;20236;-49
2021/01/12 04:52:43;;;;;;;7.07;3.70;;;5.90;99.90;;;;;;5027448;28;20495;-49
2021/01/12 04:55:12;;;;;;;4.97;3.53;;;5.80;99.90;;;;;;5027715;28;20541;-49
2021/01/12 04:57:43;;;;;;;4.73;3.17;;;5.80;99.90;;;;;;5027422;28;20490;-49
2021/01/12 05:00:17;;;;;;;4.67;2.90;;;5.80;99.90;;;;;;5016904;28;20233;-49
2021/01/12 05:03:01;;;;;;;5.37;2.90;;;5.80;99.90;;;;;;5015890;28;20813;-49
2021/01/12 05:05:36;;;;;;;3.50;2.33;;;5.80;99.90;;;;;;5017495;28;20720;-49
2021/01/12 05:08:05;;;;;;;5.87;2.20;;;5.80;99.90;;;;;;5019113;28;20558;-49
2021/01/12 05:10:37;;;;;;;5.37;1.80;;;5.70;99.90;;;;;;5011727;28;20476;-49
2021/01/12 05:13:07;;;;;;;4.80;1.83;;;5.70;99.90;;;;;;5007514;28;20538;-49
2021/01/12 05:15:37;;;;;;;3.40;1.90;;;5.70;99.90;;;;;;5002676;28;20549;-49
2021/01/12 05:18:06;;;;;;;4.73;1.70;;;5.70;99.90;;;;;;5007478;28;20476;-49
2021/01/12 05:20:45;;;;;;;5.47;1.80;;;5.70;99.90;;;;;;5007120;28;20534;-50
2021/01/12 05:23:14;;;;;;;3.70;1.80;;;5.70;99.90;;;;;;5007137;28;20608;-49
2021/01/12 05:25:43;;;;;;;8.40;2.30;;;5.50;99.90;;;;;;5007784;28;20233;-49
2021/01/12 05:28:13;;;;;;;7.03;2.07;;;5.40;99.90;;;;;;5009535;28;20480;-49
2021/01/12 05:30:40;;;;;;;7.07;1.70;;;5.40;99.90;;;;;;4987998;28;20546;-49
2021/01/12 05:33:07;;;;;;;6.90;1.80;;;5.30;99.90;;;;;;4987480;28;20328;-50
2021/01/12 05:35:39;;;;;;;6.80;1.77;;;5.20;99.90;;;;;;4988263;28;20269;-49
2021/01/12 05:38:09;;;;;;;8.57;1.30;;;5.10;99.90;;;;;;4997647;28;20241;-49
2021/01/12 05:40:41;;;;;;;6.10;1.30;;;5.00;99.90;;;;;;5011938;28;20231;-49
2021/01/12 05:43:13;;;;;;;5.23;1.23;;;4.90;99.90;;;;;;5010935;28;20479;-49
2021/01/12 05:45:43;;;;;;;3.43;0.80;;;4.90;99.90;;;;;;5011550;28;20482;-49
2021/01/12 05:48:11;;;;;;;4.90;0.73;;;4.80;99.90;;;;;;5011172;28;20844;-49
2021/01/12 05:50:40;;;;;;;5.83;1.57;;;4.80;99.90;;;;;;5011714;28;20484;-49
2021/01/12 05:53:16;;;;;;;5.13;0.83;;;4.70;99.90;;;;;;5011440;28;20483;-49
2021/01/12 05:55:45;;;;;;;4.20;1.13;;;4.70;99.90;;;;;;5015160;28;21043;-49
2021/01/12 05:58:19;;;;;;;5.13;1.13;;;4.60;99.90;;;;;;5020216;28;20532;-49
2021/01/12 06:00:48;;;;;;;7.60;1.00;;;4.60;99.90;;;;;;5017106;28;20478;-49
2021/01/12 06:03:17;;;;;;;5.00;1.27;;;4.60;99.90;;;;;;5015531;28;20847;-49
2021/01/12 06:05:46;;;;;;;4.50;0.93;;;4.60;99.90;;;;;;5020630;28;21634;-49
2021/01/12 06:08:16;;;;;;;5.63;1.00;;;4.60;99.90;;;;;;5010611;28;20483;-49
2021/01/12 06:10:45;;;;;;;7.07;0.90;;;4.60;99.90;;;;;;5010437;28;20525;-49
2021/01/12 06:13:15;;;;;;;6.10;1.00;;;4.60;99.90;;;;;;5009749;28;20998;-49
2021/01/12 06:15:44;;;;;;;6.03;0.87;;;4.60;99.90;;;;;;5010554;28;20481;-49
2021/01/12 06:18:14;;;;;;;5.83;1.10;;;4.50;99.90;;;;;;5011087;28;20483;-49
2021/01/12 06:20:56;;;;;;;4.67;1.00;;;4.50;99.90;;;;;;5010744;28;20534;-49
2021/01/12 06:23:37;;;;;;;4.10;0.90;;;4.60;99.90;;;;;;5014545;28;20578;-49
2021/01/12 06:26:06;;;;;;;7.90;1.67;;;4.60;99.90;;;;;;5026332;28;20844;-49
2021/01/12 06:28:35;;;;;;;4.77;1.13;;;4.50;99.90;;;;;;5009822;28;20520;-49
2021/01/12 06:31:05;;;;;;;3.60;1.00;;;4.40;99.90;;;;;;5006443;28;20881;-49
2021/01/12 06:33:32;;;;;;;5.70;1.10;;;4.30;99.90;;;;;;5013151;28;20563;-49
2021/01/12 06:36:01;;;;;;;4.83;1.00;;;4.30;99.90;;;;;;5013694;28;20561;-49
2021/01/12 06:38:29;;;;;;;3.53;1.00;;;4.20;99.90;;;;;;5009185;28;20874;-48
2021/01/12 06:40:58;;;;;;;4.97;1.10;;;4.20;99.90;;;;;;5009052;28;20926;-49
2021/01/12 06:43:28;;;;;;;5.03;1.00;;;4.20;99.90;;;;;;5009069;28;20504;-49
2021/01/12 06:46:00;;;;;;;5.90;0.80;;;4.20;99.90;;;;;;5005893;28;20542;-48
2021/01/12 06:48:28;;;;;;;3.57;0.90;;;4.20;99.90;;;;;;4999350;28;20534;-49
2021/01/12 06:50:56;;;;;;;5.00;1.20;;;4.20;99.90;;;;;;5007256;28;20522;-49
2021/01/12 06:53:24;;;;;;;4.67;0.80;;;4.20;99.90;;;;;;5007163;28;20487;-48
2021/01/12 06:55:51;;;;;;;5.47;1.10;;;4.20;99.90;;;;;;5014196;28;20551;-49
2021/01/12 06:58:18;;;;;;;3.33;0.73;;;4.20;99.90;;;;;;5013082;28;20526;-48
2021/01/12 07:00:59;;;;;;;7.93;1.10;;;4.20;99.90;;;;;;5011607;28;20948;-48
2021/01/12 07:03:30;;;;;;;4.33;1.07;;;4.30;99.90;;;;;;5010970;28;20514;-49
2021/01/12 07:06:03;;;;;;;2.67;0.90;;;4.30;99.90;;;;;;5026565;28;20462;-49
2021/01/12 07:08:31;;;;;;;4.90;0.97;;;4.30;99.90;;;;;;5004058;28;20472;-49
2021/01/12 07:11:03;;;;;;;6.37;1.10;;;4.40;99.90;;;;;;5005416;28;20476;-50
2021/01/12 07:13:40;;;;;;;5.70;1.00;;;4.40;99.90;;;;;;5004802;28;21010;-49
2021/01/12 07:16:15;;;;;;;3.03;0.73;;;4.30;99.90;;;;;;5006971;28;20505;-48
2021/01/12 07:18:44;;;;;;;3.50;0.93;;;4.30;99.90;;;;;;5006662;28;20557;-49
2021/01/12 07:21:13;;;;;;;7.87;1.40;;;4.30;99.90;;;;;;5011782;28;20586;-49
2021/01/12 07:23:42;;;;;;;3.77;1.00;;;4.30;99.90;;;;;;5026387;28;20494;-49
2021/01/12 07:26:10;;;;;;;5.33;1.07;;;4.30;99.90;;;;;;5026555;28;20816;-48
2021/01/12 07:28:46;;;;;;;6.80;1.40;;;4.20;99.90;;;;;;5026880;28;20545;-49
2021/01/12 07:31:14;;;;;;;5.27;1.00;;;4.20;99.90;;;;;;5007269;28;20487;-49
2021/01/12 07:33:42;;;;;;;4.03;0.90;;;4.30;99.90;;;;;;5006015;28;20486;-49
2021/01/12 07:36:10;;;;;;;6.63;1.30;;;4.30;99.90;;;;;;5006707;28;20476;-49
2021/01/12 07:38:37;;;;;;;5.93;1.00;;;4.30;99.90;;;;;;5007042;28;21002;-49
2021/01/12 07:41:04;;;;;;;3.50;0.90;;;4.30;99.90;;;;;;4989422;28;20488;-49
2021/01/12 07:43:32;;;;;;;4.57;1.03;;;4.30;99.90;;;;;;4986541;28;20489;-49
2021/01/12 07:46:02;;;;;;;4.10;0.87;;;4.30;99.90;;;;;;4986758;28;20890;-49
2021/01/12 07:48:32;;;;;;;8.03;1.40;;;4.30;99.90;;;;;;4990355;28;20500;-48
2021/01/12 07:51:02;;;;;;;7.53;1.20;;;4.20;99.90;;;;;;5005855;28;21071;-49
2021/01/12 07:53:31;;;;;;;5.57;0.93;;;4.30;99.90;;;;;;5022674;28;20458;-49
2021/01/12 07:56:00;;;;;;;5.27;1.20;;;4.30;99.90;;;;;;5005787;28;20486;-50
2021/01/12 07:58:29;;;;;;;6.97;1.20;;;4.30;99.90;;;;;;5008496;28;20483;-49
2021/01/12 08:00:58;;;;;;;5.60;1.37;;;4.20;99.90;;;;;;5005484;28;20515;-49
2021/01/12 08:03:37;;;;;;;4.20;1.43;;;4.30;99.90;;;;;;5005781;28;20509;-49
2021/01/12 08:06:05;;;;;;;5.20;1.40;;;4.20;99.90;;;;;;5006177;28;20913;-49
2021/01/12 08:08:32;;;;;;;5.40;1.37;;;4.20;99.90;;;;;;5006018;28;20487;-49
2021/01/12 08:11:00;;;;;;;4.57;1.17;;;4.20;99.90;;;;;;5005911;28;20486;-49
2021/01/12 08:13:28;;;;;;;7.03;1.33;;;4.20;99.90;;;;;;5005024;28;20507;-49
2021/01/12 08:15:55;;;;;;;6.43;1.60;;;4.20;99.90;;;;;;5005836;28;20513;-49
2021/01/12 08:18:23;;;;;;;6.27;1.50;;;4.10;99.90;;;;;;5005872;28;20542;-48
2021/01/12 08:20:55;;;;;;;8.37;1.50;;;4.10;99.90;;;;;;5005467;28;20480;-49
2021/01/12 08:23:23;;;;;;;6.80;1.70;;;4.10;99.90;;;;;;5005402;28;20486;-49
2021/01/12 08:25:50;;;;;;;7.30;1.20;;;4.10;99.90;;;;;;5005207;28;20563;-50
2021/01/12 08:28:18;;;;;;;11.07;1.50;;;4.10;99.90;;;;;;5005889;28;20484;-49
2021/01/12 08:30:45;;;;;;;7.17;1.23;;;4.10;99.90;;;;;;5008200;28;20483;-49
2021/01/12 08:33:18;;;;;;;4.07;1.07;;;4.10;99.90;;;;;;5005294;28;20483;-49
2021/01/12 08:35:48;;;;;;;6.33;1.90;;;4.10;99.90;;;;;;5005445;28;20887;-49
2021/01/12 08:38:17;;;;;;;7.07;1.50;;;4.10;99.90;;;;;;5007668;28;20480;-49
2021/01/12 08:40:47;;;;;;;3.97;1.20;;;4.10;99.90;;;;;;5005470;28;20493;-49
2021/01/12 08:43:17;;;;;;;7.17;1.57;;;4.10;99.90;;;;;;5005074;28;20537;-49
2021/01/12 08:45:45;;;;;;;10.93;1.30;;;4.10;99.90;;;;;;5003404;28;20495;-49
2021/01/12 08:48:16;;;;;;;5.50;1.30;;;4.10;99.90;;;;;;5015875;28;20480;-49
2021/01/12 08:50:44;;;;;;;5.07;1.30;;;4.10;99.90;;;;;;5024193;28;20515;-49
2021/01/12 08:53:17;;;;;;;6.43;1.73;;;4.10;99.90;;;;;;5024778;28;20572;-49
2021/01/12 08:55:45;;;;;;;6.77;1.00;;;4.00;99.90;;;;;;5024937;28;20569;-49
2021/01/12 08:58:12;;;;;;;5.73;1.60;;;4.00;99.90;;;;;;5024936;28;20493;-49
2021/01/12 09:00:42;;;;;;;5.80;1.30;;;3.90;99.90;;;;;;5024783;28;20491;-49
2021/01/12 09:03:14;;;;;;;10.50;1.80;;;3.80;99.90;;;;;;5024467;28;20489;-49
2021/01/12 09:05:43;;;;;;;6.47;1.53;;;3.80;99.90;;;;;;5024495;28;20481;-49
2021/01/12 09:08:12;;;;;;;7.10;1.43;;;3.70;99.90;;;;;;5024918;28;20555;-49
2021/01/12 09:10:41;;;;;;;3.70;1.20;;;3.70;99.90;;;;;;5024580;28;20481;-50
2021/01/12 09:13:09;;;;;;;4.77;1.57;;;3.60;99.90;;;;;;5023526;28;20564;-49
2021/01/12 09:15:38;;;;;;;4.87;0.90;;;3.50;99.90;;;;;;5024749;28;20539;-49
2021/01/12 09:18:09;;;;;;;11.30;1.73;;;3.40;99.90;;;;;;5024397;28;20550;-49
2021/01/12 09:20:38;;;;;;;10.17;1.73;;;3.40;99.90;;;;;;5024228;28;20523;-49
2021/01/12 09:23:07;;;;;;;7.93;1.30;;;3.40;99.90;;;;;;5024452;28;20479;-50
2021/01/12 09:25:36;;;;;;;7.53;1.30;;;3.40;99.90;;;;;;5024789;28;20475;-49
2021/01/12 09:28:26;;;;;;;6.17;1.50;;;3.40;99.90;;;;;;5024455;28;20888;-49
2021/01/12 09:31:05;;;;;;;3.83;1.30;;;3.40;99.90;;;;;;5024318;28;20864;-49
2021/01/12 09:33:50;;;;;;;6.47;1.67;;;3.40;99.90;;;;;;4373970;28;10000749;-49
2021/01/12 09:36:20;;;;;;;10.57;1.60;;;3.40;99.90;;;;;;2424471;28;10002050;-49
2021/01/12 09:38:50;;;;;;;15.73;2.10;;;3.50;99.90;;;;;;5011417;28;20253;-50
2021/01/12 09:41:22;;;;;;;6.67;1.63;;;3.60;99.90;;;;;;4998046;28;20476;-49
2021/01/12 09:43:52;;;;;;;8.50;1.50;;;3.60;99.90;;;;;;5003675;28;21077;-49
2021/01/12 09:46:20;;;;;;;12.63;1.80;;;3.70;99.90;;;;;;5002319;28;20490;-49
2021/01/12 09:48:48;;;;;;;9.03;1.73;;;3.70;99.90;;;;;;5024065;28;20487;-49
2021/01/12 09:51:16;;;;;;;12.53;1.97;;;3.80;99.90;;;;;;5024172;28;21002;-48
2021/01/12 09:53:45;;;;;;;8.80;1.90;;;3.80;99.90;;;;;;5024124;28;20542;-49
2021/01/12 09:56:15;;;;;;;9.83;1.67;;;3.80;99.90;;;;;;5011291;28;20474;-49
2021/01/12 09:58:43;;;;;;;8.70;2.10;;;3.80;99.90;;;;;;5004658;28;20477;-49
2021/01/12 10:01:13;;;;;;;13.20;1.93;;;3.90;99.90;;;;;;5004567;28;20484;-48
2021/01/12 10:03:47;;;;;;;10.50;1.97;;;3.90;99.90;;;;;;5003846;28;21074;-48
2021/01/12 10:06:19;;;;;;;10.37;1.53;;;4.00;99.90;;;;;;5007519;28;21331;-48
2021/01/12 10:08:47;;;;;;;8.03;1.53;;;4.00;99.90;;;;;;5004678;28;20492;-48
2021/01/12 10:11:16;;;;;;;13.97;1.63;;;4.00;99.90;;;;;;5004381;28;21213;-48
2021/01/12 10:13:45;;;;;;;10.23;1.53;;;4.10;99.90;;;;;;5004300;28;22075;-50
2021/01/12 10:16:21;;;;;;;9.57;1.60;;;4.10;99.90;;;;;;5004221;28;20495;-49
2021/01/12 10:18:48;;;;;;;7.67;1.87;;;4.20;99.90;;;;;;5004456;28;20519;-48
2021/01/12 10:21:17;;;;;;;5.17;1.40;;;4.20;99.90;;;;;;5003912;28;20542;-48
2021/01/12 10:23:45;;;;;;;9.97;1.60;;;4.30;99.90;;;;;;5002804;28;20502;-48
2021/01/12 10:26:16;;;;;;;13.53;1.43;;;4.40;99.90;;;;;;5010412;28;20999;-50
2021/01/12 10:28:46;;;;;;;6.13;1.10;;;4.40;99.90;;;;;;5007509;28;20486;-49
2021/01/12 10:31:20;;;;;;;8.73;1.20;;;4.50;99.90;;;;;;5007561;28;20509;-49
2021/01/12 10:33:48;;;;;;;6.47;1.67;;;4.60;99.90;;;;;;5007366;28;21004;-49
2021/01/12 10:36:18;;;;;;;6.53;1.00;;;4.50;99.90;;;;;;5007888;28;20897;-48
2021/01/12 10:38:47;;;;;;;5.03;1.17;;;4.60;99.90;;;;;;5003570;28;20491;-48
2021/01/12 10:41:15;;;;;;;7.03;1.10;;;4.70;99.90;;;;;;5008096;28;20495;-50
2021/01/12 10:43:43;;;;;;;9.63;1.50;;;4.80;99.90;;;;;;5020226;28;20483;-48
2021/01/12 10:46:12;;;;;;;6.47;0.93;;;4.90;99.90;;;;;;5027018;28;20862;-49
2021/01/12 10:48:41;;;;;;;5.93;1.10;;;5.00;99.90;;;;;;5008998;28;20495;-48
2021/01/12 10:51:08;;;;;;;6.77;1.07;;;5.10;99.90;;;;;;5006773;28;20484;-48
2021/01/12 10:53:36;;;;;;;6.17;1.30;;;5.30;99.90;;;;;;5005916;28;20476;-50
2021/01/12 10:56:05;;;;;;;7.47;1.77;;;5.40;99.90;;;;;;5006856;28;20850;-49
2021/01/12 10:58:32;;;;;;;10.93;2.37;;;5.60;99.90;;;;;;5006391;28;20484;-49
2021/01/12 11:01:00;;;;;;;8.53;1.77;;;5.80;99.90;;;;;;5005463;28;20484;-48
2021/01/12 11:03:29;;;;;;;8.27;1.37;;;5.90;99.90;;;;;;5005790;28;20491;-51
2021/01/12 11:05:57;;;;;;;7.00;1.57;;;6.10;99.90;;;;;;4994325;28;20499;-48
2021/01/12 11:08:29;;;;;;;9.27;1.70;;;6.30;99.90;;;;;;4986283;28;20489;-48
2021/01/12 11:10:57;;;;;;;6.70;1.30;;;6.30;99.90;;;;;;4986345;28;20915;-48
2021/01/12 11:13:26;;;;;;;4.03;1.30;;;6.30;99.90;;;;;;4985794;28;20887;-48
2021/01/12 11:15:57;;;;;;;11.73;1.70;;;6.50;99.90;;;;;;4992514;28;20236;-48
2021/01/12 11:18:28;;;;;;;8.57;1.90;;;6.60;99.90;;;;;;4994750;28;20244;-48
2021/01/12 11:20:57;;;;;;;8.17;1.73;;;6.70;99.90;;;;;;4985682;28;20508;-48
2021/01/12 11:23:26;;;;;;;7.70;1.60;;;6.90;99.90;;;;;;4985817;28;21057;-48
2021/01/12 11:25:56;;;;;;;9.00;1.40;;;7.00;99.90;;;;;;4996445;28;20482;-49
2021/01/12 11:28:24;;;;;;;9.10;2.23;;;7.20;99.90;;;;;;5002951;28;20518;-49
2021/01/12 11:30:53;;;;;;;5.47;1.40;;;7.30;99.90;;;;;;5005157;28;20508;-48
2021/01/12 11:33:20;;;;;;;10.03;1.60;;;7.40;99.90;;;;;;5003575;28;20291;-48
2021/01/12 11:35:48;;;;;;;6.80;1.33;;;7.40;99.90;;;;;;5002495;28;20539;-48
2021/01/12 11:38:34;;;;;;;8.40;1.80;;;7.50;99.90;;;;;;5002011;28;20241;-48
2021/01/12 11:41:02;;;;;;;6.07;1.20;;;7.40;99.90;;;;;;5006248;28;20300;-48
2021/01/12 11:43:29;;;;;;;8.57;1.30;;;7.50;99.90;;;;;;5008541;28;20265;-50
2021/01/12 11:45:57;;;;;;;5.53;1.03;;;7.60;99.90;;;;;;5002672;28;20237;-48
2021/01/12 11:48:24;;;;;;;6.80;1.43;;;7.50;99.90;;;;;;5003570;28;20241;-48
2021/01/12 11:50:51;;;;;;;7.27;1.53;;;7.50;99.90;;;;;;5005199;28;20241;-50
2021/01/12 11:53:19;;;;;;;8.57;1.40;;;7.50;99.90;;;;;;5004351;28;20237;-49
2021/01/12 11:55:47;;;;;;;5.90;1.30;;;7.40;99.90;;;;;;5004580;28;20241;-49
2021/01/12 11:58:14;;;;;;;6.33;1.30;;;7.20;99.90;;;;;;5004565;28;20264;-49
2021/01/12 12:00:42;;;;;;;7.77;1.30;;;7.20;99.90;;;;;;5004806;28;20621;-49
2021/01/12 12:03:10;;;;;;;4.70;1.00;;;7.10;99.90;;;;;;5004387;28;20280;-49
2021/01/12 12:05:37;;;;;;;8.43;1.20;;;7.10;99.90;;;;;;5004836;28;20240;-50
2021/01/12 12:08:05;;;;;;;8.07;2.30;;;7.20;99.90;;;;;;5008710;28;20484;-49
2021/01/12 12:10:32;;;;;;;7.77;1.50;;;7.00;99.90;;;;;;5010840;28;20323;-49
2021/01/12 12:13:01;;;;;;;5.23;1.00;;;7.00;99.90;;;;;;5025948;28;20244;-50
2021/01/12 12:15:32;;;;;;;5.00;1.10;;;7.10;99.90;;;;;;5028620;28;20244;-49
2021/01/12 12:18:00;;;;;;;5.07;1.10;;;7.20;99.90;;;;;;5028594;28;20233;-49
2021/01/12 12:20:28;;;;;;;5.47;1.10;;;7.10;99.90;;;;;;5023441;28;20249;-49
2021/01/12 12:22:55;;;;;;;6.03;1.10;;;7.00;99.90;;;;;;5008345;28;20307;-49
2021/01/12 12:25:23;;;;;;;8.93;2.33;;;7.00;99.90;;;;;;5006937;28;20241;-49
2021/01/12 12:27:51;;;;;;;6.27;1.23;;;7.00;99.90;;;;;;5005636;28;20257;-49
2021/01/12 12:30:20;;;;;;;3.60;1.00;;;7.00;99.90;;;;;;5004863;28;20658;-49
2021/01/12 12:32:48;;;;;;;6.37;1.10;;;7.00;99.90;;;;;;5004595;28;20241;-49
2021/01/12 12:35:15;;;;;;;5.33;1.10;;;6.90;99.90;;;;;;5003809;28;20240;-49
2021/01/12 12:37:43;;;;;;;6.23;1.33;;;6.90;99.90;;;;;;5012220;28;20248;-49
2021/01/12 12:40:13;;;;;;;7.20;1.30;;;7.00;99.90;;;;;;5017207;28;20533;-49
2021/01/12 12:42:40;;;;;;;4.13;1.07;;;6.90;99.90;;;;;;5024966;28;20255;-49
2021/01/12 12:45:10;;;;;;;7.73;1.10;;;6.80;99.90;;;;;;5020971;28;20232;-49
2021/01/12 12:47:42;;;;;;;5.90;1.27;;;6.80;99.90;;;;;;5005125;28;20236;-49
2021/01/12 12:50:15;;;;;;;7.13;1.03;;;6.80;99.90;;;;;;5004890;28;20755;-49
2021/01/12 12:52:42;;;;;;;6.13;0.90;;;6.80;99.90;;;;;;5004617;28;20581;-49
2021/01/12 12:55:12;;;;;;;4.10;1.10;;;6.90;99.90;;;;;;5004887;28;20297;-49
2021/01/12 12:57:40;;;;;;;5.87;0.83;;;7.00;99.90;;;;;;5004881;28;20245;-50
2021/01/12 13:00:14;;;;;;;6.33;1.07;;;6.80;99.90;;;;;;5005347;28;20300;-49